Data for 01/13/2011

Time Sea-Level Adjusted Pressure Absolute Pressure Temperature Relative Humidity Dew Point   
(mb) (inHg) (mb) (inHg) (C) (F) (%) (C) (F)
00:05 1018 30.06 848 25.04 4.7 40.5 53 -4.1 24.6
00:10 1018 30.06 848 25.04 4.8 40.6 51 -4.6 23.6
00:15 1019 30.09 848 25.04 5 41 52 -4 24.8
00:20 1019 30.09 848 25.04 5 40.9 51 -4.2 24.4
00:25 1019 30.09 848 25.04 5 41 52 -4.2 24.5
00:30 1019 30.09 848 25.04 4.8 40.7 53 -3.9 25.1
00:35 1019 30.09 848 25.04 4.8 40.7 51 -4.4 24
00:40 1019 30.09 848 25.04 5 40.9 53 -3.9 24.9
00:45 1019 30.09 848 25.04 5 41.1 51 -4.4 24.1
00:50 1019 30.09 848 25.04 5.2 41.4 51 -4.2 24.4
00:55 1019 30.09 848 25.04 5.1 41.3 51 -4.3 24.3
01:00 1019 30.09 848 25.04 5.2 41.3 49 -4.5 23.8
01:05 1019 30.09 848 25.04 5.3 41.5 50 -4.2 24.5
01:10 1019 30.09 848 25.04 5.2 41.3 51 -4.2 24.4
01:15 1019 30.09 848 25.04 5.2 41.3 51 -4.1 24.7
01:20 1019 30.09 848 25.04 5 41 52 -3.9 24.9
01:25 1019 30.09 848 25.04 4.9 40.8 52 -4 24.7
01:30 1019 30.09 848 25.04 4.8 40.7 53 -4 24.8
01:35 1019 30.09 848 25.04 4.8 40.6 54 -3.8 25.2
01:40 1019 30.09 848 25.04 4.9 40.9 51 -4.3 24.3
01:45 1019 30.09 848 25.04 5.1 41.2 51 -4.2 24.5
01:50 1019 30.09 848 25.04 5.1 41.2 51 -4.2 24.4
01:55 1019 30.09 848 25.04 5.1 41.2 52 -4 24.9
02:00 1019 30.09 848 25.04 5 41 52 -4 24.9
02:05 1019 30.09 848 25.04 5 41 50 -4.4 24
02:10 1019 30.09 849 25.07 5 41 52 -4 24.8
02:15 1019 30.09 849 25.07 4.9 40.8 51 -4.4 24.1
02:20 1019 30.09 849 25.07 5 41 50 -4.6 23.7
02:25 1019 30.09 849 25.07 5 41 49 -4.7 23.5
02:30 1020 30.12 849 25.07 4.9 40.8 51 -4.5 23.9
02:35 1020 30.12 849 25.07 4.8 40.7 50 -4.7 23.5
02:40 1020 30.12 849 25.07 4.8 40.6 51 -4.6 23.6
02:45 1020 30.12 849 25.07 5 41 48 -5 22.9
02:50 1020 30.12 849 25.07 5.1 41.2 48 -4.9 23.2
02:55 1020 30.12 849 25.07 5.2 41.3 48 -4.9 23.1
03:00 1019 30.09 849 25.07 5.2 41.4 48 -4.8 23.3
03:05 1019 30.09 849 25.07 5.2 41.4 49 -4.5 23.9
03:10 1019 30.09 848 25.04 4.9 40.8 51 -4.3 24.2
03:15 1019 30.09 848 25.04 4.5 40.2 54 -3.9 24.9
03:20 1019 30.09 848 25.04 4.6 40.3 52 -4.4 24
03:25 1019 30.09 848 25.04 5.1 41.2 48 -5 23.1
03:30 1019 30.09 848 25.04 5.4 41.8 48 -4.6 23.8
03:35 1019 30.09 848 25.04 5.3 41.6 48 -4.8 23.4
03:40 1019 30.09 848 25.04 5.2 41.4 50 -4.3 24.2
03:45 1019 30.09 848 25.04 4.8 40.7 52 -4.3 24.3
03:50 1019 30.09 848 25.04 4.5 40.1 52 -4.6 23.8
03:55 1019 30.09 848 25.04 4.6 40.3 49 -5.1 22.8
04:00 1019 30.09 848 25.04 4.6 40.2 51 -4.8 23.4
04:05 1019 30.09 848 25.04 4.1 39.4 52 -4.9 23.2
04:10 1019 30.09 848 25.04 4 39.2 52 -5 23
04:15 1019 30.09 848 25.04 3.7 38.7 53 -5.1 22.9
04:20 1019 30.09 848 25.04 3.5 38.3 53 -5.1 22.8
04:25 1019 30.09 848 25.04 3.5 38.4 54 -5 23
04:30 1019 30.09 848 25.04 3.4 38.1 53 -5.4 22.3
04:35 1019 30.09 848 25.04 3.6 38.4 52 -5.3 22.5
04:40 1019 30.09 848 25.04 4.5 40.1 47 -5.9 21.5
04:45 1019 30.09 848 25.04 4.9 40.9 48 -5.3 22.5
04:50 1019 30.09 848 25.04 4.6 40.4 50 -5 23
04:55 1019 30.09 848 25.04 4.5 40.2 49 -5.3 22.5
05:00 1019 30.09 848 25.04 4.3 39.8 50 -5.1 22.8
05:05 1018 30.06 848 25.04 3.9 39.1 51 -5.4 22.3
05:10 1018 30.06 848 25.04 3.9 39.1 50 -5.4 22.2
05:15 1018 30.06 848 25.04 4.1 39.3 50 -5.5 22.2
05:20 1018 30.06 848 25.04 4 39.1 51 -5.3 22.5
05:25 1018 30.06 848 25.04 3.3 37.9 54 -5.1 22.8
05:30 1018 30.06 848 25.04 2.8 37.1 55 -5.3 22.5
05:35 1018 30.06 848 25.04 2.8 37.1 55 -5.3 22.4
05:40 1018 30.06 848 25.04 2.5 36.5 56 -5.5 22.1
05:45 1018 30.06 848 25.04 2.5 36.5 56 -5.4 22.2
05:50 1019 30.09 848 25.04 2.5 36.5 57 -5.3 22.5
05:55 1019 30.09 848 25.04 2.5 36.4 57 -5.2 22.7
06:00 1019 30.09 848 25.04 2.3 36.2 57 -5.3 22.5
06:05 1019 30.09 848 25.04 2.2 35.9 58 -5.3 22.5
06:10 1019 30.09 848 25.04 2.1 35.8 59 -5.1 22.8
06:15 1019 30.09 848 25.04 2.2 36 56 -5.7 21.7
06:20 1019 30.09 848 25.04 2.6 36.6 56 -5.4 22.2
06:25 1019 30.09 848 25.04 2.7 36.8 56 -5.3 22.4
06:30 1019 30.09 848 25.04 2.8 37.1 56 -5.1 22.8
06:35 1019 30.09 848 25.04 2.9 37.2 56 -5.1 22.8
06:40 1019 30.09 848 25.04 2.9 37.3 56 -5.1 22.8
06:45 1019 30.09 848 25.04 2.9 37.2 56 -5.1 22.9
06:50 1019 30.09 848 25.04 2.8 37 55 -5.3 22.5
06:55 1019 30.09 848 25.04 2.7 36.9 56 -5.1 22.9
07:00 1019 30.09 848 25.04 2.7 36.8 57 -5 22.9
07:05 1019 30.09 848 25.04 2.7 36.9 56 -5.2 22.6
07:10 1019 30.09 848 25.04 2.8 37 58 -4.6 23.7
07:15 1019 30.09 848 25.04 2.3 36.1 61 -4.6 23.8
07:20 1019 30.09 848 25.04 2.2 36 60 -4.8 23.4
07:25 1019 30.09 848 25.04 2.3 36.2 59 -4.9 23.2
07:30 1019 30.09 848 25.04 2.7 36.8 57 -5 23.1
07:35 1019 30.09 848 25.04 2.8 37.1 58 -4.7 23.5
07:40 1019 30.09 848 25.04 2.6 36.7 57 -5 23.1
07:45 1019 30.09 848 25.04 2.7 36.8 58 -4.8 23.4
07:50 1019 30.09 848 25.04 2.6 36.7 59 -4.6 23.6
07:55 1019 30.09 848 25.04 2.5 36.6 60 -4.6 23.8
08:00 1019 30.09 848 25.04 2.3 36.2 61 -4.4 24.1
08:05 1018 30.06 848 25.04 2.2 36 61 -4.6 23.7
08:10 1018 30.06 848 25.04 2.4 36.3 60 -4.6 23.7
08:15 1019 30.09 848 25.04 2.4 36.4 60 -4.5 23.9
08:20 1019 30.09 848 25.04 2.5 36.4 59 -4.7 23.6
08:25 1019 30.09 848 25.04 2.5 36.5 59 -4.7 23.5
08:30 1019 30.09 848 25.04 2.7 36.8 62 -3.9 25
08:35 1019 30.09 848 25.04 2.6 36.7 59 -4.6 23.8
08:40 1019 30.09 848 25.04 2.8 37 57 -4.8 23.4
08:45 1018 30.06 848 25.04 2.9 37.3 61 -4 24.9
08:50 1018 30.06 848 25.04 2.6 36.7 60 -4.4 24.1
08:55 1018 30.06 848 25.04 2.7 36.9 60 -4.3 24.2
09:00 1018 30.06 848 25.04 3.1 37.5 57 -4.7 23.5
09:05 1018 30.06 848 25.04 3.6 38.5 56 -4.4 24.2
09:10 1018 30.06 847 25.01 3.9 38.9 54 -4.5 23.9
09:15 1018 30.06 848 25.04 4.1 39.3 54 -4.5 23.8
09:20 1018 30.06 847 25.01 4.1 39.4 54 -4.5 24
09:25 1018 30.06 847 25.01 4.3 39.7 53 -4.5 23.8
09:30 1018 30.06 847 25.01 4.7 40.4 52 -4.3 24.2
09:35 1018 30.06 847 25.01 4.5 40.1 51 -4.7 23.6
09:40 1018 30.06 847 25.01 4.7 40.4 52 -4.3 24.3
09:45 1018 30.06 847 25.01 4.6 40.3 52 -4.3 24.3
09:50 1018 30.06 847 25.01 4.7 40.4 53 -4.2 24.4
09:55 1018 30.06 847 25.01 4.8 40.7 52 -4.3 24.3
10:00 1018 30.06 847 25.01 5 41 51 -4.3 24.2
10:05 1018 30.06 847 25.01 5.1 41.2 51 -4.3 24.2
10:10 1018 30.06 847 25.01 5.2 41.3 50 -4.5 24
10:15 1018 30.06 847 25.01 5.3 41.6 50 -4.2 24.4
10:20 1018 30.06 847 25.01 5.2 41.4 50 -4.3 24.3
10:25 1018 30.06 847 25.01 5.2 41.4 51 -4 24.8
10:30 1018 30.06 847 25.01 5.4 41.7 51 -4 24.9
10:35 1018 30.06 847 25.01 5.6 42.1 51 -3.8 25.1
10:40 1018 30.06 847 25.01 5.7 42.3 50 -3.9 25
10:45 1018 30.06 847 25.01 6 42.7 49 -4.1 24.7
10:50 1018 30.06 847 25.01 6.2 43.1 46 -4.5 23.9
10:55 1018 30.06 847 25.01 6.2 43.1 48 -4.1 24.6
11:00 1018 30.06 847 25.01 5.9 42.5 49 -4 24.9
11:05 1018 30.06 847 25.01 5.7 42.2 51 -3.8 25.2
11:10 1017 30.03 847 25.01 5.7 42.3 48 -4.3 24.2
11:15 1017 30.03 846 24.98 5.9 42.6 49 -4 24.8
11:20 1017 30.03 846 24.98 6 42.7 48 -4.2 24.4
11:25 1017 30.03 846 24.98 6.2 43.1 47 -4.2 24.5
11:30 1017 30.03 847 25.01 6.5 43.7 47 -4 24.9
11:35 1017 30.03 846 24.98 6.7 44.1 46 -4.1 24.7
11:40 1017 30.03 846 24.98 7 44.6 45 -4.1 24.7
11:45 1017 30.03 846 24.98 7 44.6 47 -3.5 25.7
11:50 1017 30.03 846 24.98 6.6 43.8 48 -3.6 25.5
11:55 1017 30.03 846 24.98 6.4 43.5 49 -3.7 25.4
12:00 1017 30.03 846 24.98 6.3 43.3 50 -3.3 26.1
12:05 1017 30.03 846 24.98 6.2 43.2 50 -3.3 26
12:10 1017 30.03 846 24.98 6.2 43.1 51 -3.3 26.1
12:15 1017 30.03 846 24.98 6.2 43.1 50 -3.4 25.9
12:20 1017 30.03 846 24.98 6.2 43.2 49 -3.7 25.3
12:25 1017 30.03 846 24.98 6.3 43.3 49 -3.6 25.6
12:30 1017 30.03 846 24.98 6.4 43.4 50 -3.4 25.9
12:35 1017 30.03 846 24.98 6.3 43.4 49 -3.5 25.7
12:40 1016 30 846 24.98 6.3 43.3 49 -3.5 25.6
12:45 1016 30 846 24.98 6.3 43.3 50 -3.5 25.8
12:50 1016 30 846 24.98 6.3 43.4 50 -3.3 26
12:55 1016 30 845 24.95 6.4 43.6 49 -3.5 25.8
13:00 1016 30 845 24.95 6.5 43.7 49 -3.3 26
13:05 1016 30 845 24.95 6.6 43.9 49 -3.3 26.1
13:10 1016 30 845 24.95 6.7 44.1 49 -3.2 26.2
13:15 1016 30 845 24.95 6.7 44.1 49 -3.3 26
13:20 1016 30 845 24.95 6.7 44.1 49 -3.3 26.1
13:25 1016 30 845 24.95 6.7 44.1 50 -3 26.5
13:30 1016 30 845 24.95 6.7 44.1 48 -3.6 25.5
13:35 1016 30 845 24.95 6.5 43.7 49 -3.4 25.9
13:40 1016 30 845 24.95 6.3 43.4 49 -3.6 25.5
13:45 1016 30 845 24.95 6.3 43.4 50 -3.4 25.9
13:50 1016 30 845 24.95 6.6 43.9 49 -3.5 25.8
13:55 1016 30 845 24.95 6.7 44.1 48 -3.5 25.7
14:00 1016 30 845 24.95 6.8 44.3 49 -3.2 26.2
14:05 1016 30 845 24.95 6.8 44.3 49 -3.3 26.1
14:10 1016 30 845 24.95 6.7 44.1 50 -3 26.6
14:15 1016 30 845 24.95 6.8 44.2 50 -2.9 26.9
14:20 1016 30 845 24.95 6.7 44 50 -2.9 26.8
14:25 1016 30 845 24.95 6.6 43.9 51 -2.7 27.1
14:30 1015 29.97 845 24.95 6.5 43.7 52 -2.5 27.5
14:35 1015 29.97 845 24.95 6.4 43.5 51 -2.9 26.8
14:40 1015 29.97 845 24.95 6.5 43.8 51 -2.8 27
14:45 1015 29.97 845 24.95 6.6 43.9 51 -2.8 27
14:50 1015 29.97 845 24.95 6.7 44.1 50 -2.9 26.8
14:55 1015 29.97 845 24.95 6.9 44.3 49 -3 26.6
15:00 1016 30 845 24.95 6.8 44.2 51 -2.7 27.1
15:05 1016 30 845 24.95 6.6 43.9 50 -3.1 26.5
15:10 1016 30 845 24.95 6.5 43.7 52 -2.6 27.3
15:15 1016 30 845 24.95 6.2 43.2 52 -3 26.7
15:20 1016 30 845 24.95 6.1 42.9 52 -3.1 26.4
15:25 1016 30 845 24.95 6 42.8 53 -2.9 26.7
15:30 1016 30 845 24.95 6.1 43 51 -3.3 26
15:35 1016 30 845 24.95 6.2 43.1 51 -3.2 26.2
15:40 1016 30 845 24.95 6.3 43.4 51 -3 26.7
15:45 1016 30 845 24.95 6.3 43.3 51 -3.2 26.3
15:50 1016 30 845 24.95 6.3 43.3 51 -3.2 26.3
15:55 1016 30 845 24.95 6.3 43.3 51 -3.1 26.5
16:00 1016 30 845 24.95 6.3 43.4 51 -3.2 26.3
16:05 1016 30 845 24.95 6.3 43.3 51 -3.2 26.3
16:10 1016 30 845 24.95 6.1 43.1 51 -3.3 26.1
16:15 1016 30 846 24.98 6.1 43 52 -3 26.5
16:20 1016 30 846 24.98 6 42.7 52 -3 26.6
16:25 1016 30 846 24.98 5.7 42.3 54 -2.9 26.7
16:30 1016 30 846 24.98 5.5 41.9 54 -2.9 26.7
16:35 1016 30 846 24.98 5.5 42 54 -3.1 26.3
16:40 1016 30 846 24.98 5.6 42 54 -3.1 26.4
16:45 1016 30 846 24.98 5.6 42 54 -3.1 26.5
16:50 1016 30 846 24.98 5.5 42 55 -2.8 26.9
16:55 1016 30 846 24.98 5.4 41.7 55 -2.8 26.9
17:00 1016 30 846 24.98 5.3 41.5 58 -2.3 27.8
17:05 1016 30 846 24.98 4.8 40.6 60 -2.3 27.8
17:10 1016 30 846 24.98 4.6 40.3 60 -2.4 27.7
17:15 1016 30 845 24.95 4.4 39.9 61 -2.4 27.6
17:20 1016 30 846 24.98 4.2 39.6 62 -2.5 27.5
17:25 1016 30 846 24.98 4.4 39.9 61 -2.5 27.5
17:30 1016 30 846 24.98 4.4 39.9 60 -2.7 27.1
17:35 1016 30 846 24.98 4.4 40 59 -2.8 27
17:40 1016 30 846 24.98 4.5 40.1 60 -2.6 27.3
17:45 1016 30 846 24.98 4.5 40.1 60 -2.6 27.3
17:50 1017 30.03 846 24.98 4.4 39.9 60 -2.7 27.2
17:55 1017 30.03 846 24.98 4.4 39.9 60 -2.8 27
18:00 1017 30.03 846 24.98 4.4 39.9 60 -2.7 27.1
18:05 1017 30.03 846 24.98 4.4 39.8 60 -2.7 27.1
18:10 1017 30.03 846 24.98 4.3 39.7 61 -2.6 27.3
18:15 1017 30.03 846 24.98 4.3 39.8 60 -2.7 27.2
18:20 1017 30.03 846 24.98 4.5 40 61 -2.4 27.7
18:25 1017 30.03 846 24.98 4.4 40 60 -2.5 27.4
18:30 1017 30.03 846 24.98 4.5 40 60 -2.7 27.2
18:35 1017 30.03 846 24.98 4.5 40.2 60 -2.6 27.2
18:40 1017 30.03 846 24.98 4.6 40.3 60 -2.6 27.3
18:45 1017 30.03 846 24.98 4.5 40.1 61 -2.3 27.9
18:50 1017 30.03 846 24.98 4.3 39.7 63 -2.2 28
18:55 1017 30.03 846 24.98 4.2 39.6 63 -2.2 28
19:00 1017 30.03 846 24.98 4.2 39.6 61 -2.6 27.4
19:05 1017 30.03 846 24.98 4.5 40.2 60 -2.6 27.4
19:10 1017 30.03 846 24.98 4.8 40.7 58 -2.6 27.3
19:15 1017 30.03 846 24.98 5 41 58 -2.6 27.3
19:20 1017 30.03 846 24.98 5.1 41.1 59 -2.4 27.7
19:25 1017 30.03 846 24.98 5 41.1 58 -2.6 27.4
19:30 1017 30.03 846 24.98 5.1 41.1 58 -2.5 27.6
19:35 1017 30.03 846 24.98 5.1 41.2 58 -2.5 27.5
19:40 1017 30.03 846 24.98 5 41.1 59 -2.2 28
19:45 1017 30.03 846 24.98 4.9 40.8 60 -2.3 27.9
19:50 1017 30.03 846 24.98 4.8 40.7 60 -2.3 27.8
19:55 1017 30.03 846 24.98 4.7 40.5 61 -2.1 28.2
20:00 1017 30.03 846 24.98 4.4 40 63 -2.1 28.3
20:05 1017 30.03 846 24.98 4 39.1 64 -2.1 28.2
20:10 1017 30.03 846 24.98 3.9 39 64 -2.3 27.9
20:15 1017 30.03 846 24.98 4 39.2 63 -2.3 27.9
20:20 1017 30.03 846 24.98 4.2 39.5 63 -2.3 27.8
20:25 1017 30.03 846 24.98 4.3 39.8 62 -2.2 28
20:30 1017 30.03 846 24.98 4.3 39.8 62 -2.2 28
20:35 1017 30.03 846 24.98 4.4 39.8 62 -2.3 27.8
20:40 1017 30.03 846 24.98 4.4 39.9 62 -2.3 27.8
20:45 1017 30.03 846 24.98 4.6 40.3 60 -2.4 27.6
20:50 1017 30.03 846 24.98 4.7 40.4 60 -2.3 27.8
20:55 1017 30.03 846 24.98 4.7 40.5 60 -2.5 27.5
21:00 1017 30.03 846 24.98 4.9 40.7 59 -2.4 27.7
21:05 1017 30.03 846 24.98 5 41.1 55 -3.2 26.2
21:10 1017 30.03 846 24.98 5.5 41.9 55 -2.8 26.9
21:15 1017 30.03 847 25.01 5.4 41.7 57 -2.4 27.6
21:20 1017 30.03 847 25.01 5.1 41.2 58 -2.5 27.5
21:25 1017 30.03 847 25.01 5.1 41.2 56 -2.9 26.8
21:30 1018 30.06 847 25.01 5.2 41.4 56 -2.7 27.1
21:35 1018 30.06 847 25.01 5.1 41.2 57 -2.8 27
21:40 1018 30.06 847 25.01 5 40.9 58 -2.5 27.4
21:45 1018 30.06 847 25.01 5 41 58 -2.7 27.2
21:50 1018 30.06 847 25.01 5.1 41.2 57 -2.7 27.2
21:55 1018 30.06 847 25.01 5.2 41.3 56 -2.8 26.9
22:00 1018 30.06 847 25.01 5.4 41.7 55 -3 26.6
22:05 1018 30.06 847 25.01 5.6 42 54 -2.9 26.8
22:10 1018 30.06 847 25.01 5.6 42 55 -2.8 26.9
22:15 1018 30.06 847 25.01 5.5 41.8 55 -2.8 26.9
22:20 1018 30.06 847 25.01 5.4 41.7 56 -2.7 27.1
22:25 1018 30.06 847 25.01 5.3 41.5 57 -2.7 27.2
22:30 1018 30.06 847 25.01 5.2 41.4 56 -2.9 26.9
22:35 1018 30.06 847 25.01 5.2 41.3 57 -2.6 27.3
22:40 1018 30.06 847 25.01 4.9 40.9 59 -2.5 27.6
22:45 1018 30.06 847 25.01 4.7 40.5 59 -2.7 27.2
22:50 1017 30.03 847 25.01 4.7 40.5 58 -2.9 26.8
22:55 1017 30.03 847 25.01 4.7 40.4 59 -2.7 27.1
23:00 1017 30.03 847 25.01 4.7 40.4 58 -2.9 26.8
23:05 1017 30.03 846 24.98 4.8 40.6 57 -3 26.6
23:10 1017 30.03 847 25.01 4.9 40.8 56 -3.2 26.2
23:15 1017 30.03 846 24.98 5.2 41.3 54 -3.5 25.8
23:20 1017 30.03 846 24.98 5.3 41.6 53 -3.3 26
23:25 1017 30.03 846 24.98 5.4 41.7 54 -3.2 26.3
23:30 1017 30.03 847 25.01 5.3 41.5 56 -2.9 26.8
23:35 1017 30.03 847 25.01 5.2 41.4 52 -3.8 25.2
23:40 1018 30.06 847 25.01 5.5 42 53 -3.3 26
23:45 1018 30.06 847 25.01 5.2 41.3 56 -2.9 26.7
23:50 1018 30.06 847 25.01 4.7 40.5 57 -3.1 26.5
23:55 1018 30.06 847 25.01 4.6 40.4 58 -2.8 26.9
24:00 1018 30.06 847 25.01 4.6 40.3 56 -3.3 26.1